Kaliope — C6PG4 — position and weather

sailwx.info

Track history (hours):
 
Tides and Currents Weather Stations Pressure Air Temp Water Temp Dewpoint Dewpoint Depression Visibility Wind Speed Wind Dir Waves Ship Positions

Kaliope

Last reported at 2014-Jan-26 22:23 UTC. Time now 2014-Sep-30 10:11 UTC.
Position N 38°14' E 025°08'.
Warning: this ship's position is months out of date.

Length 149 m; draft 6.4 m.

Type: Ship. MMSI: 309995000.

Date/timePositionNaut miles runAvg speedWind from/ knotsBaromVisibWave heightAir tempDewpointWater temp
2014-Jan-26 22:23N 38°14' E 025°08'3511.6
2014-Jan-26 19:23N 37°52' E 024°34'1012.3
2014-Jan-26 18:33N 37°42' E 024°30'1211.9
2014-Jan-26 17:33N 37°31' E 024°24'1212.4
2014-Jan-26 16:33N 37°21' E 024°15'2512.3
2014-Jan-26 14:33N 37°02' E 023°56'1311.8
2014-Jan-26 13:26N 36°51' E 023°46'1312.1
2014-Jan-26 12:22N 36°40' E 023°39'43111.7
2014-Jan-24 23:25N 36°35' E 014°41'1113.1
2014-Jan-24 22:33N 36°38' E 014°28'1312.7
2014-Jan-24 21:33N 36°41' E 014°12'1312.9
2014-Jan-24 20:34N 36°44' E 013°57'  
2014-Jan-18 18:33N 36°41' W 023°45'1212.5
2014-Jan-18 17:33N 36°44' W 023°60'1312.7
2014-Jan-18 16:33N 36°47' W 024°15'2311.5
2014-Jan-18 14:33N 36°50' W 024°44'1010.3
2014-Jan-18 13:33N 36°51' W 024°57'1010.5
2014-Jan-18 12:33N 36°51' W 025°10'1110.5
2014-Jan-18 11:33N 36°51' W 025°23'1010.2
2014-Jan-18 10:33N 36°52' W 025°36'1010.3
2014-Jan-18 09:33N 36°52' W 025°48'1010.3
2014-Jan-18 08:34N 36°52' W 026°01'1010.3
2014-Jan-18 07:33N 36°52' W 026°14'1010.4
2014-Jan-18 06:33N 36°52' W 026°27'1010.4
2014-Jan-18 05:34N 36°52' W 026°40'1010.2
2014-Jan-18 04:33N 36°52' W 026°53'1010.4
2014-Jan-18 03:33N 36°53' W 027°06'4410.3
2014-Jan-17 23:19N 36°54' W 028°00'810.0
2014-Jan-17 22:33N 36°54' W 028°10'1110.1
2014-Jan-17 21:29N 36°54' W 028°23'1010.5
2014-Jan-17 20:33N 36°54' W 028°35'1110.6
2014-Jan-17 19:34N 36°55' W 028°49'1110.7
2014-Jan-17 18:31N 36°55' W 029°03'1010.4
2014-Jan-17 17:31N 36°55' W 029°16'1010.2
2014-Jan-17 16:32N 36°55' W 029°28'1010.3
2014-Jan-17 15:33N 36°55' W 029°41'1110.5
2014-Jan-17 14:33N 36°56' W 029°54'1312.5
2014-Jan-17 13:33N 36°54' W 030°10'1312.8
2014-Jan-17 12:33N 36°53' W 030°25'1312.7
2014-Jan-17 11:32N 36°52' W 030°42'4212.7
2014-Jan-17 08:14N 36°47' W 031°34'2412.6
2014-Jan-17 06:21N 36°45' W 032°03'1012.7
2014-Jan-17 05:33N 36°44' W 032°16'  
Track history (hours):
 
Tides and Currents Weather Stations Pressure Air Temp Water Temp Dewpoint Dewpoint Depression Visibility Wind Speed Wind Dir Waves Ship Positions

Kaliope

Last reported at 2014-Jan-26 22:23 UTC. Time now 2014-Sep-30 10:11 UTC.
Position N 38°14' E 025°08'.
Warning: this ship's position is months out of date.

Length 149 m; draft 6.4 m.

Type: Ship. MMSI: 309995000.

Date/timePositionNaut miles runAvg speedWind from/ knotsBaromVisibWave heightAir tempDewpointWater temp
2014-Jan-26 22:23N 38°14' E 025°08'3511.6
2014-Jan-26 19:23N 37°52' E 024°34'1012.3
2014-Jan-26 18:33N 37°42' E 024°30'1211.9
2014-Jan-26 17:33N 37°31' E 024°24'1212.4
2014-Jan-26 16:33N 37°21' E 024°15'2512.3
2014-Jan-26 14:33N 37°02' E 023°56'1311.8
2014-Jan-26 13:26N 36°51' E 023°46'1312.1
2014-Jan-26 12:22N 36°40' E 023°39'43111.7
2014-Jan-24 23:25N 36°35' E 014°41'1113.1
2014-Jan-24 22:33N 36°38' E 014°28'1312.7
2014-Jan-24 21:33N 36°41' E 014°12'1312.9
2014-Jan-24 20:34N 36°44' E 013°57'  
2014-Jan-18 18:33N 36°41' W 023°45'1212.5
2014-Jan-18 17:33N 36°44' W 023°60'1312.7
2014-Jan-18 16:33N 36°47' W 024°15'2311.5
2014-Jan-18 14:33N 36°50' W 024°44'1010.3
2014-Jan-18 13:33N 36°51' W 024°57'1010.5
2014-Jan-18 12:33N 36°51' W 025°10'1110.5
2014-Jan-18 11:33N 36°51' W 025°23'1010.2
2014-Jan-18 10:33N 36°52' W 025°36'1010.3
2014-Jan-18 09:33N 36°52' W 025°48'1010.3
2014-Jan-18 08:34N 36°52' W 026°01'1010.3
2014-Jan-18 07:33N 36°52' W 026°14'1010.4
2014-Jan-18 06:33N 36°52' W 026°27'1010.4
2014-Jan-18 05:34N 36°52' W 026°40'1010.2
2014-Jan-18 04:33N 36°52' W 026°53'1010.4
2014-Jan-18 03:33N 36°53' W 027°06'4410.3
2014-Jan-17 23:19N 36°54' W 028°00'810.0
2014-Jan-17 22:33N 36°54' W 028°10'1110.1
2014-Jan-17 21:29N 36°54' W 028°23'1010.5
2014-Jan-17 20:33N 36°54' W 028°35'1110.6
2014-Jan-17 19:34N 36°55' W 028°49'1110.7
2014-Jan-17 18:31N 36°55' W 029°03'1010.4
2014-Jan-17 17:31N 36°55' W 029°16'1010.2
2014-Jan-17 16:32N 36°55' W 029°28'1010.3
2014-Jan-17 15:33N 36°55' W 029°41'1110.5
2014-Jan-17 14:33N 36°56' W 029°54'1312.5
2014-Jan-17 13:33N 36°54' W 030°10'1312.8
2014-Jan-17 12:33N 36°53' W 030°25'1312.7
2014-Jan-17 11:32N 36°52' W 030°42'4212.7
2014-Jan-17 08:14N 36°47' W 031°34'2412.6
2014-Jan-17 06:21N 36°45' W 032°03'1012.7
2014-Jan-17 05:33N 36°44' W 032°16'  

Dump ship's entire track history